Time;durP1;ratioP1;P1;durP2;ratioP2;P2;SDS_P1;SDS_P2;PMS_P1;PMS_P2;Temp;Humidity;BMP_temperature;BMP_pressure;BME280_temperature;BME280_humidity;BME280_pressure;Samples;Min_cycle;Max_cycle;Signal;HPM_P1;HPM_P2
2023/05/03 11:13:39;;;;;;;13.50;8.88;;;13.50;92.60;;;;;;6155194;23;20096;-93
2023/05/03 11:16:20;;;;;;;15.68;10.35;;;13.50;92.60;;;;;;6135960;23;20096;-94
2023/05/03 11:19:05;;;;;;;18.33;10.18;;;13.60;92.60;;;;;;6139332;23;20013;-92
2023/05/03 11:24:47;;;;;;;13.95;9.40;;;13.60;92.60;;;;;;6066592;23;20466;-93
2023/05/03 11:27:34;;;;;;;13.07;8.80;;;13.60;92.80;;;;;;6065786;23;20014;-94
2023/05/03 11:33:53;;;;;;;13.63;9.50;;;13.70;93.10;;;;;;6064869;23;20045;-94
2023/05/03 11:36:51;;;;;;;11.50;8.35;;;13.70;93.00;;;;;;6067107;23;20003;-94
2023/05/03 11:39:51;;;;;;;15.52;8.70;;;13.70;92.70;;;;;;6038751;23;20106;-95
2023/05/03 11:42:25;;;;;;;14.75;8.77;;;13.70;92.80;;;;;;5899703;24;20010;-92
2023/05/03 11:45:05;;;;;;;14.55;9.23;;;13.70;93.00;;;;;;5924534;24;20013;-93
2023/05/03 11:48:01;;;;;;;13.20;9.27;;;13.80;92.70;;;;;;5924432;24;20012;-95
2023/05/03 11:50:53;;;;;;;18.52;9.65;;;13.70;92.60;;;;;;5844362;24;20480;-93
2023/05/03 11:53:22;;;;;;;14.35;9.20;;;13.70;92.70;;;;;;5843997;24;20010;-93
2023/05/03 11:55:53;;;;;;;15.60;8.40;;;13.70;92.70;;;;;;5844259;24;20042;-90
2023/05/03 11:58:56;;;;;;;17.35;8.30;;;13.80;92.70;;;;;;5843281;24;20014;-91
2023/05/03 12:01:20;;;;;;;14.20;7.93;;;13.80;92.60;;;;;;5862105;24;20076;-94
2023/05/03 12:03:49;;;;;;;14.63;9.88;;;13.80;92.60;;;;;;5923722;24;20100;-92
2023/05/03 12:06:25;;;;;;;14.90;7.82;;;13.90;92.60;;;;;;5925277;24;20009;-93
2023/05/03 12:09:04;;;;;;;10.48;7.57;;;13.90;92.50;;;;;;5924845;24;20069;-93
2023/05/03 12:11:55;;;;;;;15.07;8.88;;;13.90;92.50;;;;;;5924756;24;20012;-93
2023/05/03 12:14:56;;;;;;;;;;;13.90;92.40;;;;;;5925302;24;20017;-95
2023/05/03 12:17:55;;;;;;;9.82;7.30;;;13.90;92.40;;;;;;5924738;24;20314;-93
2023/05/03 12:24:11;;;;;;;14.57;9.35;;;13.90;92.00;;;;;;6066079;23;20507;-94
2023/05/03 12:26:40;;;;;;;13.10;8.15;;;13.90;92.10;;;;;;6101533;23;20092;-92
2023/05/03 12:29:06;;;;;;;12.98;7.18;;;13.90;91.70;;;;;;6158236;23;20092;-90
2023/05/03 12:31:43;;;;;;;9.52;6.50;;;14.00;91.90;;;;;;6158568;23;20028;-92
2023/05/03 12:34:12;;;;;;;15.65;6.40;;;14.00;91.80;;;;;;6158123;23;19997;-92
2023/05/03 12:36:45;;;;;;;10.73;7.20;;;14.00;91.60;;;;;;6135996;23;20434;-96
2023/05/03 12:39:15;;;;;;;10.65;6.05;;;14.00;91.40;;;;;;6157593;23;19998;-93
2023/05/03 12:41:41;;;;;;;9.32;6.60;;;14.20;91.20;;;;;;6158569;23;20013;-92
2023/05/03 12:44:29;;;;;;;12.02;7.75;;;14.10;90.70;;;;;;6184188;23;20053;-96
2023/05/03 12:47:05;;;;;;;8.90;6.13;;;14.10;90.70;;;;;;6159925;23;20013;-92
2023/05/03 12:49:52;;;;;;;10.13;6.15;;;14.10;90.50;;;;;;6159342;23;20423;-93
2023/05/03 12:53:08;;;;;;;;;;;;;;;;;;;;;
2023/05/03 12:56:18;;;;;;;8.45;5.80;;;14.10;90.30;;;;;;6169420;23;20057;-93
2023/05/03 13:02:58;;;;;;;9.25;6.10;;;14.10;90.00;;;;;;6187111;23;20040;-94
2023/05/03 13:05:48;;;;;;;9.98;6.28;;;14.10;88.90;;;;;;6068192;23;20005;-93
2023/05/03 13:08:49;;;;;;;9.38;5.55;;;14.20;88.60;;;;;;6138896;23;20602;-94
2023/05/03 13:11:45;;;;;;;9.60;4.97;;;14.20;88.80;;;;;;6166519;23;20067;-95
2023/05/03 13:14:18;;;;;;;10.90;4.55;;;14.20;87.60;;;;;;6154328;23;20013;-90
2023/05/03 13:17:05;;;;;;;8.57;4.80;;;14.20;86.50;;;;;;6153208;23;20394;-93
2023/05/03 13:19:42;;;;;;;7.32;4.35;;;14.10;86.40;;;;;;6129932;23;20009;-94
2023/05/03 13:22:10;;;;;;;9.05;4.60;;;14.10;85.70;;;;;;6130267;23;20020;-90
2023/05/03 13:24:37;;;;;;;6.43;4.43;;;14.10;85.90;;;;;;6154156;23;20006;-89
2023/05/03 13:27:10;;;;;;;7.10;5.32;;;14.20;85.30;;;;;;6152021;23;20088;-89
2023/05/03 13:54:22;;;;;;;7.03;4.45;;;14.20;84.10;;;;;;5950330;24;20017;-91
2023/05/03 13:57:10;;;;;;;8.30;4.28;;;14.10;83.00;;;;;;5900073;24;20009;-91
2023/05/03 13:59:36;;;;;;;6.22;4.45;;;14.10;82.70;;;;;;5900259;24;20017;-90
2023/05/03 14:02:02;;;;;;;4.13;2.67;;;14.20;83.20;;;;;;5923006;24;20044;-89
2023/05/03 14:04:29;;;;;;;6.20;4.18;;;14.20;82.20;;;;;;5899348;24;20009;-90
2023/05/03 14:07:21;;;;;;;5.18;4.15;;;14.30;82.60;;;;;;5924148;24;20033;-92
2023/05/03 14:13:29;;;;;;;;;;;;;;;;;;;;;
2023/05/03 14:20:05;;;;;;;7.50;4.20;;;14.20;82.70;;;;;;6006497;23;20010;-91
2023/05/03 14:22:41;;;;;;;5.93;4.00;;;14.10;82.30;;;;;;6004338;23;20020;-93
2023/05/03 14:25:57;;;;;;;;;;;;;;;;;;;;;
2023/05/03 14:29:07;;;;;;;5.85;3.50;;;14.10;82.40;;;;;;6006389;23;20012;-90
2023/05/03 14:32:01;;;;;;;8.93;4.90;;;14.20;82.30;;;;;;6093878;23;20048;-90
2023/05/03 14:34:47;;;;;;;10.50;4.68;;;14.30;82.60;;;;;;6096509;23;20006;-90
2023/05/03 14:38:13;;;;;;;7.10;3.72;;;14.30;82.50;;;;;;6070288;23;20010;-91
2023/05/03 14:41:27;;;;;;;5.43;2.97;;;14.30;82.40;;;;;;6072013;23;20006;-94
2023/05/03 14:44:13;;;;;;;12.40;3.63;;;14.20;80.60;;;;;;6118524;23;20126;-90
2023/05/03 14:47:38;;;;;;;4.78;3.80;;;14.20;80.60;;;;;;6122496;23;20002;-92
2023/05/03 15:51:13;;;;;;;4.63;2.63;;;14.50;77.00;;;;;;6179517;23;20397;-90
2023/05/03 15:57:52;;;;;;;5.95;4.07;;;14.20;76.60;;;;;;5980370;24;20016;-90
2023/05/03 16:01:01;;;;;;;5.45;3.30;;;14.20;77.20;;;;;;5936437;24;20016;-90
2023/05/03 16:03:41;;;;;;;6.25;4.00;;;14.20;77.50;;;;;;5977609;24;20064;-91
2023/05/03 16:06:21;;;;;;;6.03;4.07;;;14.20;78.10;;;;;;5934341;24;20016;-90
2023/05/03 16:09:22;;;;;;;;;;;;;;;;;;;;;
2023/05/03 16:13:00;;;;;;;5.22;3.08;;;14.20;78.80;;;;;;5980061;24;19937;-91
2023/05/03 16:23:42;;;;;;;3.30;2.17;;;14.20;76.00;;;;;;5870259;24;20284;-92
2023/05/03 16:27:08;;;;;;;3.58;2.42;;;14.20;74.80;;;;;;5867828;24;20026;-92
2023/05/03 16:34:04;;;;;;;5.00;3.00;;;14.20;74.40;;;;;;5901922;24;20420;-94
2023/05/03 17:35:41;;;;;;;;;;;;;;;;;;;;;
2023/05/03 20:35:03;;;;;;;;;;;;;;;;;;;;;
